sensor_id;sensor_type;location;lat;lon;timestamp;pressure;altitude;pressure_sealevel;temperature;humidity
2785;BME280;57944;48.722;9.316;2023-02-11T00:01:30;100104.19;;;-5.10;100.00
2785;BME280;57944;48.722;9.316;2023-02-11T00:04:03;100104.19;;;-5.10;100.00
2785;BME280;57944;48.722;9.316;2023-02-11T00:06:37;100102.31;;;-5.02;100.00
2785;BME280;57944;48.722;9.316;2023-02-11T00:09:07;100105.91;;;-4.81;100.00
2785;BME280;57944;48.722;9.316;2023-02-11T00:11:37;100105.19;;;-4.86;100.00
2785;BME280;57944;48.722;9.316;2023-02-11T00:14:09;100105.41;;;-4.94;100.00
2785;BME280;57944;48.722;9.316;2023-02-11T00:16:40;100097.50;;;-5.08;100.00
2785;BME280;57944;48.722;9.316;2023-02-11T00:19:10;100106.63;;;-5.09;100.00
2785;BME280;57944;48.722;9.316;2023-02-11T00:21:43;100101.69;;;-5.10;100.00
2785;BME280;57944;48.722;9.316;2023-02-11T00:24:13;100102.72;;;-5.18;100.00
2785;BME280;57944;48.722;9.316;2023-02-11T00:26:43;100102.63;;;-5.14;100.00
2785;BME280;57944;48.722;9.316;2023-02-11T00:29:13;100100.94;;;-5.12;100.00
2785;BME280;57944;48.722;9.316;2023-02-11T00:31:44;100100.94;;;-5.12;100.00
2785;BME280;57944;48.722;9.316;2023-02-11T00:34:14;100098.31;;;-5.08;100.00
2785;BME280;57944;48.722;9.316;2023-02-11T00:36:47;100104.38;;;-4.87;100.00
2785;BME280;57944;48.722;9.316;2023-02-11T00:39:18;100098.00;;;-4.96;100.00
2785;BME280;57944;48.722;9.316;2023-02-11T00:41:48;100098.84;;;-4.97;100.00
2785;BME280;57944;48.722;9.316;2023-02-11T00:44:18;100089.78;;;-4.99;100.00
2785;BME280;57944;48.722;9.316;2023-02-11T00:46:48;100089.19;;;-5.07;100.00
2785;BME280;57944;48.722;9.316;2023-02-11T00:49:18;100079.19;;;-5.06;100.00
2785;BME280;57944;48.722;9.316;2023-02-11T00:51:50;100077.31;;;-4.98;100.00
2785;BME280;57944;48.722;9.316;2023-02-11T00:54:21;100074.16;;;-5.03;100.00
2785;BME280;57944;48.722;9.316;2023-02-11T00:56:51;100080.09;;;-5.08;100.00
2785;BME280;57944;48.722;9.316;2023-02-11T00:59:23;100084.25;;;-5.09;100.00
2785;BME280;57944;48.722;9.316;2023-02-11T01:01:54;100077.44;;;-5.02;100.00
2785;BME280;57944;48.722;9.316;2023-02-11T01:04:24;100084.97;;;-5.05;100.00
2785;BME280;57944;48.722;9.316;2023-02-11T01:06:56;100088.50;;;-5.12;100.00
2785;BME280;57944;48.722;9.316;2023-02-11T01:09:27;100083.00;;;-5.24;100.00
2785;BME280;57944;48.722;9.316;2023-02-11T01:11:58;100083.59;;;-5.16;100.00
2785;BME280;57944;48.722;9.316;2023-02-11T01:14:28;100077.09;;;-5.20;100.00
2785;BME280;57944;48.722;9.316;2023-02-11T01:16:58;100073.81;;;-5.22;100.00
2785;BME280;57944;48.722;9.316;2023-02-11T01:19:28;100072.22;;;-5.24;100.00
2785;BME280;57944;48.722;9.316;2023-02-11T01:22:01;100059.69;;;-5.20;100.00
2785;BME280;57944;48.722;9.316;2023-02-11T01:24:31;100058.63;;;-5.11;100.00
2785;BME280;57944;48.722;9.316;2023-02-11T01:27:01;100048.88;;;-5.19;100.00
2785;BME280;57944;48.722;9.316;2023-02-11T01:29:32;100042.19;;;-5.17;100.00
2785;BME280;57944;48.722;9.316;2023-02-11T01:32:02;100037.31;;;-5.20;100.00
2785;BME280;57944;48.722;9.316;2023-02-11T01:34:32;100040.88;;;-5.28;100.00
2785;BME280;57944;48.722;9.316;2023-02-11T01:37:05;100050.13;;;-5.35;100.00
2785;BME280;57944;48.722;9.316;2023-02-11T01:39:35;100049.22;;;-5.31;100.00
2785;BME280;57944;48.722;9.316;2023-02-11T01:42:05;100045.94;;;-5.33;100.00
2785;BME280;57944;48.722;9.316;2023-02-11T01:44:38;100045.22;;;-5.36;100.00
2785;BME280;57944;48.722;9.316;2023-02-11T01:47:09;100039.47;;;-5.39;100.00
2785;BME280;57944;48.722;9.316;2023-02-11T01:49:46;100040.25;;;-5.36;100.00
2785;BME280;57944;48.722;9.316;2023-02-11T01:52:25;100050.22;;;-5.38;100.00
2785;BME280;57944;48.722;9.316;2023-02-11T01:55:02;100050.56;;;-5.52;100.00
2785;BME280;57944;48.722;9.316;2023-02-11T01:57:52;100043.72;;;-5.42;100.00
2785;BME280;57944;48.722;9.316;2023-02-11T02:00:28;100038.56;;;-5.36;100.00
2785;BME280;57944;48.722;9.316;2023-02-11T02:03:07;100030.34;;;-5.38;100.00
2785;BME280;57944;48.722;9.316;2023-02-11T02:05:45;100038.63;;;-5.37;100.00
2785;BME280;57944;48.722;9.316;2023-02-11T02:08:29;100027.81;;;-5.36;100.00
2785;BME280;57944;48.722;9.316;2023-02-11T02:11:01;100027.84;;;-5.38;100.00
2785;BME280;57944;48.722;9.316;2023-02-11T02:13:33;100021.28;;;-5.39;100.00
2785;BME280;57944;48.722;9.316;2023-02-11T02:16:07;100029.41;;;-5.34;100.00
2785;BME280;57944;48.722;9.316;2023-02-11T02:18:50;100025.06;;;-5.26;100.00
2785;BME280;57944;48.722;9.316;2023-02-11T02:21:51;100013.28;;;-5.19;100.00
2785;BME280;57944;48.722;9.316;2023-02-11T02:24:58;100022.50;;;-5.23;100.00
2785;BME280;57944;48.722;9.316;2023-02-11T02:27:47;100019.91;;;-5.20;100.00
2785;BME280;57944;48.722;9.316;2023-02-11T02:30:50;100010.59;;;-5.11;100.00
2785;BME280;57944;48.722;9.316;2023-02-11T02:33:32;100015.56;;;-5.11;100.00
2785;BME280;57944;48.722;9.316;2023-02-11T02:36:14;100005.50;;;-5.08;100.00
2785;BME280;57944;48.722;9.316;2023-02-11T02:38:53;100009.59;;;-5.06;100.00
2785;BME280;57944;48.722;9.316;2023-02-11T02:41:29;100002.00;;;-5.01;100.00
2785;BME280;57944;48.722;9.316;2023-02-11T02:44:00;100004.56;;;-5.04;100.00
2785;BME280;57944;48.722;9.316;2023-02-11T02:46:33;99994.47;;;-4.98;100.00
2785;BME280;57944;48.722;9.316;2023-02-11T02:49:10;99983.56;;;-4.94;100.00
2785;BME280;57944;48.722;9.316;2023-02-11T02:52:09;99995.97;;;-4.92;100.00
2785;BME280;57944;48.722;9.316;2023-02-11T02:55:17;99989.34;;;-4.94;100.00
2785;BME280;57944;48.722;9.316;2023-02-11T02:58:26;99989.22;;;-4.89;100.00
2785;BME280;57944;48.722;9.316;2023-02-11T03:01:07;99976.69;;;-4.86;100.00
2785;BME280;57944;48.722;9.316;2023-02-11T03:03:47;99967.44;;;-4.81;100.00
2785;BME280;57944;48.722;9.316;2023-02-11T03:06:33;99969.72;;;-4.75;100.00
2785;BME280;57944;48.722;9.316;2023-02-11T03:09:14;99978.91;;;-4.77;100.00
2785;BME280;57944;48.722;9.316;2023-02-11T03:11:45;99979.69;;;-4.75;100.00
2785;BME280;57944;48.722;9.316;2023-02-11T03:14:17;99981.03;;;-4.64;100.00
2785;BME280;57944;48.722;9.316;2023-02-11T03:16:49;99975.19;;;-4.63;100.00
2785;BME280;57944;48.722;9.316;2023-02-11T03:19:25;99978.84;;;-4.47;100.00
2785;BME280;57944;48.722;9.316;2023-02-11T03:22:04;99974.81;;;-4.24;100.00
2785;BME280;57944;48.722;9.316;2023-02-11T03:24:38;99976.63;;;-4.30;100.00
2785;BME280;57944;48.722;9.316;2023-02-11T03:27:19;99976.53;;;-4.27;100.00
2785;BME280;57944;48.722;9.316;2023-02-11T03:29:55;99972.53;;;-4.31;100.00
2785;BME280;57944;48.722;9.316;2023-02-11T03:32:31;99973.31;;;-4.29;100.00
2785;BME280;57944;48.722;9.316;2023-02-11T03:35:10;99978.28;;;-4.29;100.00
2785;BME280;57944;48.722;9.316;2023-02-11T03:37:51;99975.13;;;-4.34;100.00
2785;BME280;57944;48.722;9.316;2023-02-11T03:40:27;99972.19;;;-4.20;100.00
2785;BME280;57944;48.722;9.316;2023-02-11T03:43:02;99974.91;;;-4.01;100.00
2785;BME280;57944;48.722;9.316;2023-02-11T03:45:36;99986.63;;;-3.79;100.00
2785;BME280;57944;48.722;9.316;2023-02-11T03:48:13;99978.56;;;-3.63;100.00
2785;BME280;57944;48.722;9.316;2023-02-11T03:50:47;99973.88;;;-3.47;100.00
2785;BME280;57944;48.722;9.316;2023-02-11T03:53:22;99975.00;;;-3.32;100.00
2785;BME280;57944;48.722;9.316;2023-02-11T03:55:55;99981.34;;;-3.23;100.00
2785;BME280;57944;48.722;9.316;2023-02-11T03:58:27;99983.47;;;-3.12;100.00
2785;BME280;57944;48.722;9.316;2023-02-11T04:00:58;99985.41;;;-3.21;100.00
2785;BME280;57944;48.722;9.316;2023-02-11T04:03:28;99982.66;;;-3.13;100.00
2785;BME280;57944;48.722;9.316;2023-02-11T04:05:59;99979.78;;;-3.02;100.00
2785;BME280;57944;48.722;9.316;2023-02-11T04:08:32;99975.97;;;-2.89;100.00
2785;BME280;57944;48.722;9.316;2023-02-11T04:11:02;99982.22;;;-2.79;100.00
2785;BME280;57944;48.722;9.316;2023-02-11T04:13:33;99984.66;;;-2.77;100.00
2785;BME280;57944;48.722;9.316;2023-02-11T04:16:03;99993.34;;;-2.87;100.00
2785;BME280;57944;48.722;9.316;2023-02-11T04:18:33;100001.72;;;-2.88;100.00
2785;BME280;57944;48.722;9.316;2023-02-11T04:21:04;100002.75;;;-2.94;100.00
2785;BME280;57944;48.722;9.316;2023-02-11T04:23:37;100009.53;;;-2.98;100.00
2785;BME280;57944;48.722;9.316;2023-02-11T04:26:07;100015.28;;;-2.96;100.00
2785;BME280;57944;48.722;9.316;2023-02-11T04:28:37;100005.19;;;-2.93;100.00
2785;BME280;57944;48.722;9.316;2023-02-11T04:31:07;100006.53;;;-2.84;100.00
2785;BME280;57944;48.722;9.316;2023-02-11T04:33:38;100012.06;;;-2.76;100.00
2785;BME280;57944;48.722;9.316;2023-02-11T04:36:08;100005.16;;;-2.69;100.00
2785;BME280;57944;48.722;9.316;2023-02-11T04:38:40;99996.75;;;-2.66;100.00
2785;BME280;57944;48.722;9.316;2023-02-11T04:41:10;100002.41;;;-2.63;100.00
2785;BME280;57944;48.722;9.316;2023-02-11T04:43:40;99998.84;;;-2.56;100.00
2785;BME280;57944;48.722;9.316;2023-02-11T04:46:10;100002.78;;;-2.50;100.00
2785;BME280;57944;48.722;9.316;2023-02-11T04:48:43;100003.34;;;-2.43;100.00
2785;BME280;57944;48.722;9.316;2023-02-11T04:51:13;100005.31;;;-2.52;100.00
2785;BME280;57944;48.722;9.316;2023-02-11T04:53:46;99994.97;;;-2.42;100.00
2785;BME280;57944;48.722;9.316;2023-02-11T04:56:16;99998.75;;;-2.32;100.00
2785;BME280;57944;48.722;9.316;2023-02-11T04:58:46;99994.63;;;-2.33;100.00
2785;BME280;57944;48.722;9.316;2023-02-11T05:01:16;100003.81;;;-2.34;100.00
2785;BME280;57944;48.722;9.316;2023-02-11T05:03:47;99990.56;;;-2.36;100.00
2785;BME280;57944;48.722;9.316;2023-02-11T05:06:17;99997.06;;;-2.32;100.00
2785;BME280;57944;48.722;9.316;2023-02-11T05:08:50;99984.56;;;-2.32;100.00
2785;BME280;57944;48.722;9.316;2023-02-11T05:11:23;99976.25;;;-2.32;100.00
2785;BME280;57944;48.722;9.316;2023-02-11T05:13:53;99977.91;;;-2.31;100.00
2785;BME280;57944;48.722;9.316;2023-02-11T05:16:23;99976.00;;;-2.47;100.00
2785;BME280;57944;48.722;9.316;2023-02-11T05:18:54;99961.28;;;-2.32;100.00
2785;BME280;57944;48.722;9.316;2023-02-11T05:21:24;99971.84;;;-2.26;100.00
2785;BME280;57944;48.722;9.316;2023-02-11T05:23:57;99949.19;;;-2.21;100.00
2785;BME280;57944;48.722;9.316;2023-02-11T05:26:27;99943.31;;;-2.20;100.00
2785;BME280;57944;48.722;9.316;2023-02-11T05:28:57;99933.94;;;-2.15;100.00
2785;BME280;57944;48.722;9.316;2023-02-11T05:31:27;99931.06;;;-2.06;100.00
2785;BME280;57944;48.722;9.316;2023-02-11T05:33:58;99929.78;;;-2.14;100.00
2785;BME280;57944;48.722;9.316;2023-02-11T05:36:30;99925.59;;;-2.14;100.00
2785;BME280;57944;48.722;9.316;2023-02-11T05:39:03;99931.66;;;-2.19;100.00
2785;BME280;57944;48.722;9.316;2023-02-11T05:41:33;99925.72;;;-2.17;100.00
2785;BME280;57944;48.722;9.316;2023-02-11T05:44:04;99923.75;;;-2.10;100.00
2785;BME280;57944;48.722;9.316;2023-02-11T05:46:34;99933.38;;;-2.21;100.00
2785;BME280;57944;48.722;9.316;2023-02-11T05:49:04;99928.81;;;-2.12;100.00
2785;BME280;57944;48.722;9.316;2023-02-11T05:51:34;99946.50;;;-2.16;100.00
2785;BME280;57944;48.722;9.316;2023-02-11T05:54:07;99942.88;;;-2.09;100.00
2785;BME280;57944;48.722;9.316;2023-02-11T05:56:37;99936.13;;;-2.07;100.00
2785;BME280;57944;48.722;9.316;2023-02-11T05:59:13;99926.22;;;-2.09;100.00
2785;BME280;57944;48.722;9.316;2023-02-11T06:01:43;99916.94;;;-2.07;100.00
2785;BME280;57944;48.722;9.316;2023-02-11T06:04:13;99922.69;;;-2.05;100.00
2785;BME280;57944;48.722;9.316;2023-02-11T06:06:43;99926.44;;;-1.94;100.00
2785;BME280;57944;48.722;9.316;2023-02-11T06:09:16;99928.13;;;-1.95;100.00
2785;BME280;57944;48.722;9.316;2023-02-11T06:11:46;99924.81;;;-1.95;100.00
2785;BME280;57944;48.722;9.316;2023-02-11T06:14:16;99922.66;;;-1.84;100.00
2785;BME280;57944;48.722;9.316;2023-02-11T06:16:46;99945.84;;;-1.81;100.00
2785;BME280;57944;48.722;9.316;2023-02-11T06:19:16;99951.84;;;-1.85;100.00
2785;BME280;57944;48.722;9.316;2023-02-11T06:21:46;99949.78;;;-1.75;100.00
2785;BME280;57944;48.722;9.316;2023-02-11T06:24:19;99938.00;;;-1.73;100.00
2785;BME280;57944;48.722;9.316;2023-02-11T06:27:09;99950.13;;;-1.64;100.00
2785;BME280;57944;48.722;9.316;2023-02-11T06:29:39;99951.88;;;-1.66;100.00
2785;BME280;57944;48.722;9.316;2023-02-11T06:32:09;99948.44;;;-1.63;100.00
2785;BME280;57944;48.722;9.316;2023-02-11T06:34:59;99948.84;;;-1.53;100.00
2785;BME280;57944;48.722;9.316;2023-02-11T06:37:29;99940.97;;;-1.44;100.00
2785;BME280;57944;48.722;9.316;2023-02-11T06:40:03;99940.16;;;-1.45;100.00
2785;BME280;57944;48.722;9.316;2023-02-11T06:42:33;99955.56;;;-1.35;100.00
2785;BME280;57944;48.722;9.316;2023-02-11T06:45:05;99946.69;;;-1.23;100.00
2785;BME280;57944;48.722;9.316;2023-02-11T06:47:37;99942.63;;;-1.26;100.00
2785;BME280;57944;48.722;9.316;2023-02-11T06:50:12;99947.78;;;-1.29;100.00
2785;BME280;57944;48.722;9.316;2023-02-11T06:52:43;99958.94;;;-1.36;100.00
2785;BME280;57944;48.722;9.316;2023-02-11T06:55:15;99957.06;;;-1.31;100.00
2785;BME280;57944;48.722;9.316;2023-02-11T06:57:46;99956.03;;;-0.89;100.00
2785;BME280;57944;48.722;9.316;2023-02-11T07:00:16;99959.84;;;-0.82;100.00
2785;BME280;57944;48.722;9.316;2023-02-11T07:02:47;99956.91;;;-0.73;100.00
2785;BME280;57944;48.722;9.316;2023-02-11T07:05:17;99962.38;;;-0.64;100.00
2785;BME280;57944;48.722;9.316;2023-02-11T07:07:47;99962.22;;;-0.61;100.00
2785;BME280;57944;48.722;9.316;2023-02-11T07:10:20;99960.94;;;-0.34;100.00
2785;BME280;57944;48.722;9.316;2023-02-11T07:12:50;99968.09;;;-0.26;100.00
2785;BME280;57944;48.722;9.316;2023-02-11T07:15:24;99966.31;;;-0.24;100.00
2785;BME280;57944;48.722;9.316;2023-02-11T07:17:54;99964.63;;;-0.24;100.00
2785;BME280;57944;48.722;9.316;2023-02-11T07:20:25;99972.78;;;-0.20;100.00
2785;BME280;57944;48.722;9.316;2023-02-11T07:22:55;99961.81;;;-0.17;100.00
2785;BME280;57944;48.722;9.316;2023-02-11T07:25:29;99964.44;;;-0.03;100.00
2785;BME280;57944;48.722;9.316;2023-02-11T07:27:59;99961.19;;;0.12;100.00
2785;BME280;57944;48.722;9.316;2023-02-11T07:30:29;99959.88;;;0.05;100.00
2785;BME280;57944;48.722;9.316;2023-02-11T07:32:59;99956.78;;;0.17;100.00
2785;BME280;57944;48.722;9.316;2023-02-11T07:35:29;99956.16;;;0.30;100.00
2785;BME280;57944;48.722;9.316;2023-02-11T07:37:59;99955.38;;;0.45;100.00
2785;BME280;57944;48.722;9.316;2023-02-11T07:40:31;99952.00;;;0.78;100.00
2785;BME280;57944;48.722;9.316;2023-02-11T07:43:02;99955.16;;;0.97;100.00
2785;BME280;57944;48.722;9.316;2023-02-11T07:45:32;99969.06;;;1.19;100.00
2785;BME280;57944;48.722;9.316;2023-02-11T07:48:02;99976.22;;;1.56;100.00
2785;BME280;57944;48.722;9.316;2023-02-11T07:50:32;99974.03;;;1.81;100.00
2785;BME280;57944;48.722;9.316;2023-02-11T07:53:02;99972.38;;;1.95;100.00
2785;BME280;57944;48.722;9.316;2023-02-11T07:55:35;99961.78;;;2.05;100.00
2785;BME280;57944;48.722;9.316;2023-02-11T07:58:05;99958.28;;;2.07;100.00
2785;BME280;57944;48.722;9.316;2023-02-11T08:00:35;99956.94;;;2.01;100.00
2785;BME280;57944;48.722;9.316;2023-02-11T08:03:05;99961.22;;;2.14;100.00
2785;BME280;57944;48.722;9.316;2023-02-11T08:05:37;99953.88;;;2.25;100.00
2785;BME280;57944;48.722;9.316;2023-02-11T08:08:08;99949.56;;;2.27;100.00
2785;BME280;57944;48.722;9.316;2023-02-11T08:10:40;99958.03;;;2.12;100.00
2785;BME280;57944;48.722;9.316;2023-02-11T08:13:10;99948.56;;;1.87;100.00
2785;BME280;57944;48.722;9.316;2023-02-11T08:15:40;99950.84;;;1.75;100.00
2785;BME280;57944;48.722;9.316;2023-02-11T08:18:10;99950.09;;;2.04;100.00
2785;BME280;57944;48.722;9.316;2023-02-11T08:20:40;99959.63;;;2.41;100.00
2785;BME280;57944;48.722;9.316;2023-02-11T08:23:11;99954.53;;;2.84;100.00
2785;BME280;57944;48.722;9.316;2023-02-11T08:25:43;99958.38;;;3.17;100.00
2785;BME280;57944;48.722;9.316;2023-02-11T08:28:13;99955.84;;;3.44;100.00
2785;BME280;57944;48.722;9.316;2023-02-11T08:30:43;99962.53;;;3.58;100.00
2785;BME280;57944;48.722;9.316;2023-02-11T08:33:13;99964.53;;;3.53;94.83
2785;BME280;57944;48.722;9.316;2023-02-11T08:35:43;99980.94;;;3.33;93.52
2785;BME280;57944;48.722;9.316;2023-02-11T08:38:13;99976.13;;;3.16;94.39
2785;BME280;57944;48.722;9.316;2023-02-11T08:40:46;99976.25;;;3.00;100.00
2785;BME280;57944;48.722;9.316;2023-02-11T08:43:16;99971.41;;;2.97;100.00
2785;BME280;57944;48.722;9.316;2023-02-11T08:45:46;99964.09;;;2.51;100.00
2785;BME280;57944;48.722;9.316;2023-02-11T08:48:17;99968.78;;;2.57;100.00
2785;BME280;57944;48.722;9.316;2023-02-11T08:50:47;99965.38;;;2.29;100.00
2785;BME280;57944;48.722;9.316;2023-02-11T08:53:17;99971.28;;;2.28;100.00
2785;BME280;57944;48.722;9.316;2023-02-11T08:55:52;99963.19;;;2.09;100.00
2785;BME280;57944;48.722;9.316;2023-02-11T08:58:22;99961.22;;;2.14;100.00
2785;BME280;57944;48.722;9.316;2023-02-11T09:00:53;99961.41;;;2.25;100.00
2785;BME280;57944;48.722;9.316;2023-02-11T09:03:23;99950.28;;;2.29;100.00
2785;BME280;57944;48.722;9.316;2023-02-11T09:05:53;99946.13;;;2.57;100.00
2785;BME280;57944;48.722;9.316;2023-02-11T09:08:23;99948.66;;;2.57;100.00
2785;BME280;57944;48.722;9.316;2023-02-11T09:10:58;99959.59;;;2.70;100.00
2785;BME280;57944;48.722;9.316;2023-02-11T09:13:28;99967.59;;;2.77;100.00
2785;BME280;57944;48.722;9.316;2023-02-11T09:16:01;99972.16;;;2.84;100.00
2785;BME280;57944;48.722;9.316;2023-02-11T09:18:32;99965.88;;;2.77;100.00
2785;BME280;57944;48.722;9.316;2023-02-11T09:21:03;99957.97;;;2.69;100.00
2785;BME280;57944;48.722;9.316;2023-02-11T09:23:34;99958.66;;;2.85;100.00
2785;BME280;57944;48.722;9.316;2023-02-11T09:26:10;99948.47;;;2.87;100.00
2785;BME280;57944;48.722;9.316;2023-02-11T09:28:41;99944.44;;;2.99;100.00
2785;BME280;57944;48.722;9.316;2023-02-11T09:31:14;99946.75;;;3.29;100.00
2785;BME280;57944;48.722;9.316;2023-02-11T09:33:49;99939.94;;;3.56;100.00
2785;BME280;57944;48.722;9.316;2023-02-11T09:36:23;99936.16;;;3.76;100.00
2785;BME280;57944;48.722;9.316;2023-02-11T09:38:57;99937.94;;;3.87;100.00
2785;BME280;57944;48.722;9.316;2023-02-11T09:42:04;99935.94;;;3.92;97.20
2785;BME280;57944;48.722;9.316;2023-02-11T09:44:38;99929.19;;;3.93;95.13
2785;BME280;57944;48.722;9.316;2023-02-11T09:47:24;99933.22;;;3.83;98.19
2785;BME280;57944;48.722;9.316;2023-02-11T09:50:01;99941.31;;;3.88;96.42
2785;BME280;57944;48.722;9.316;2023-02-11T09:52:40;99939.47;;;3.90;97.01
2785;BME280;57944;48.722;9.316;2023-02-11T09:55:22;99943.22;;;3.97;95.52
2785;BME280;57944;48.722;9.316;2023-02-11T09:57:56;99942.19;;;4.12;95.83
2785;BME280;57944;48.722;9.316;2023-02-11T10:00:32;99938.44;;;4.31;96.60
2785;BME280;57944;48.722;9.316;2023-02-11T10:03:38;99948.69;;;4.66;97.08
2785;BME280;57944;48.722;9.316;2023-02-11T10:06:35;99939.38;;;4.66;89.31
2785;BME280;57944;48.722;9.316;2023-02-11T10:09:28;99951.56;;;4.73;89.27
2785;BME280;57944;48.722;9.316;2023-02-11T10:12:21;99957.41;;;4.86;87.18
2785;BME280;57944;48.722;9.316;2023-02-11T10:15:23;99943.22;;;4.96;84.74
2785;BME280;57944;48.722;9.316;2023-02-11T10:18:32;99952.03;;;5.14;84.34
2785;BME280;57944;48.722;9.316;2023-02-11T10:21:18;99948.16;;;4.98;85.71
2785;BME280;57944;48.722;9.316;2023-02-11T10:23:58;99942.22;;;4.99;85.49
2785;BME280;57944;48.722;9.316;2023-02-11T10:26:31;99941.97;;;4.78;87.99
2785;BME280;57944;48.722;9.316;2023-02-11T10:29:20;99949.41;;;4.55;87.86
2785;BME280;57944;48.722;9.316;2023-02-11T10:31:57;99953.66;;;4.42;88.41
2785;BME280;57944;48.722;9.316;2023-02-11T10:34:29;99954.50;;;4.30;89.57
2785;BME280;57944;48.722;9.316;2023-02-11T10:36:59;99953.16;;;4.50;88.33
2785;BME280;57944;48.722;9.316;2023-02-11T10:39:29;99948.53;;;4.43;90.64
2785;BME280;57944;48.722;9.316;2023-02-11T10:42:05;99949.84;;;4.49;89.38
2785;BME280;57944;48.722;9.316;2023-02-11T10:44:41;99943.47;;;4.80;88.96
2785;BME280;57944;48.722;9.316;2023-02-11T10:47:23;99932.47;;;5.05;86.86
2785;BME280;57944;48.722;9.316;2023-02-11T10:49:55;99933.91;;;4.97;89.80
2785;BME280;57944;48.722;9.316;2023-02-11T10:52:30;99935.97;;;4.91;86.60
2785;BME280;57944;48.722;9.316;2023-02-11T10:55:08;99926.00;;;5.01;86.08
2785;BME280;57944;48.722;9.316;2023-02-11T10:57:52;99926.41;;;5.08;85.50
2785;BME280;57944;48.722;9.316;2023-02-11T11:00:34;99914.28;;;5.00;86.21
2785;BME280;57944;48.722;9.316;2023-02-11T11:03:18;99907.25;;;5.17;84.80
2785;BME280;57944;48.722;9.316;2023-02-11T11:05:51;99900.44;;;5.52;90.36
2785;BME280;57944;48.722;9.316;2023-02-11T11:08:39;99900.81;;;5.70;84.98
2785;BME280;57944;48.722;9.316;2023-02-11T11:11:12;99896.56;;;5.82;80.29
2785;BME280;57944;48.722;9.316;2023-02-11T11:13:56;99885.13;;;6.00;79.75
2785;BME280;57944;48.722;9.316;2023-02-11T11:16:28;99893.16;;;6.17;77.03
2785;BME280;57944;48.722;9.316;2023-02-11T11:19:21;99884.88;;;6.03;75.51
2785;BME280;57944;48.722;9.316;2023-02-11T11:21:55;99889.25;;;6.13;75.66
2785;BME280;57944;48.722;9.316;2023-02-11T11:24:28;99882.59;;;6.00;75.66
2785;BME280;57944;48.722;9.316;2023-02-11T11:27:03;99884.28;;;5.77;78.70
2785;BME280;57944;48.722;9.316;2023-02-11T11:29:38;99881.22;;;6.08;81.36
2785;BME280;57944;48.722;9.316;2023-02-11T11:32:17;99879.34;;;6.21;79.46
2785;BME280;57944;48.722;9.316;2023-02-11T11:34:54;99875.16;;;6.54;75.40
2785;BME280;57944;48.722;9.316;2023-02-11T11:37:27;99867.97;;;6.70;73.70
2785;BME280;57944;48.722;9.316;2023-02-11T11:40:02;99874.38;;;6.74;73.99
2785;BME280;57944;48.722;9.316;2023-02-11T11:42:38;99882.81;;;6.75;74.19
2785;BME280;57944;48.722;9.316;2023-02-11T11:45:24;99871.06;;;6.74;76.40
2785;BME280;57944;48.722;9.316;2023-02-11T11:47:59;99873.69;;;6.83;73.51
2785;BME280;57944;48.722;9.316;2023-02-11T11:50:39;99863.25;;;6.98;71.20
2785;BME280;57944;48.722;9.316;2023-02-11T11:53:19;99862.94;;;7.12;78.35
2785;BME280;57944;48.722;9.316;2023-02-11T11:55:59;99868.09;;;7.43;81.77
2785;BME280;57944;48.722;9.316;2023-02-11T11:58:32;99869.47;;;7.77;69.99
2785;BME280;57944;48.722;9.316;2023-02-11T12:01:17;99874.63;;;7.97;68.13
2785;BME280;57944;48.722;9.316;2023-02-11T12:04:29;99864.28;;;8.19;67.48
2785;BME280;57944;48.722;9.316;2023-02-11T12:07:26;99864.41;;;7.77;66.24
2785;BME280;57944;48.722;9.316;2023-02-11T12:10:22;99869.69;;;8.05;65.64
2785;BME280;57944;48.722;9.316;2023-02-11T12:13:15;99868.31;;;8.22;63.37
2785;BME280;57944;48.722;9.316;2023-02-11T12:16:01;99864.53;;;8.76;60.43
2785;BME280;57944;48.722;9.316;2023-02-11T12:18:55;99867.53;;;9.38;57.59
2785;BME280;57944;48.722;9.316;2023-02-11T12:21:46;99871.03;;;9.84;56.21
2785;BME280;57944;48.722;9.316;2023-02-11T12:24:44;99860.56;;;10.15;54.96
2785;BME280;57944;48.722;9.316;2023-02-11T12:27:42;99861.38;;;10.61;52.72
2785;BME280;57944;48.722;9.316;2023-02-11T12:30:31;99868.38;;;10.77;51.48
2785;BME280;57944;48.722;9.316;2023-02-11T12:33:13;99874.34;;;10.85;51.16
2785;BME280;57944;48.722;9.316;2023-02-11T12:35:54;99872.09;;;11.52;50.59
2785;BME280;57944;48.722;9.316;2023-02-11T12:39:06;99875.31;;;12.15;48.50
2785;BME280;57944;48.722;9.316;2023-02-11T12:42:05;99875.59;;;11.77;48.96
2785;BME280;57944;48.722;9.316;2023-02-11T12:45:12;99869.34;;;12.06;48.42
2785;BME280;57944;48.722;9.316;2023-02-11T12:48:05;99873.66;;;12.05;48.19
2785;BME280;57944;48.722;9.316;2023-02-11T12:50:51;99853.28;;;11.01;50.13
2785;BME280;57944;48.722;9.316;2023-02-11T12:54:05;99860.50;;;11.32;49.97
2785;BME280;57944;48.722;9.316;2023-02-11T12:56:49;99857.22;;;10.95;50.71
2785;BME280;57944;48.722;9.316;2023-02-11T12:59:34;99859.22;;;10.92;51.23
2785;BME280;57944;48.722;9.316;2023-02-11T13:02:19;99849.13;;;10.46;51.81
2785;BME280;57944;48.722;9.316;2023-02-11T13:04:56;99842.88;;;10.59;52.01
2785;BME280;57944;48.722;9.316;2023-02-11T13:07:34;99835.59;;;10.46;52.71
2785;BME280;57944;48.722;9.316;2023-02-11T13:10:27;99841.69;;;10.71;51.72
2785;BME280;57944;48.722;9.316;2023-02-11T13:13:11;99839.88;;;10.63;51.37
2785;BME280;57944;48.722;9.316;2023-02-11T13:15:54;99832.44;;;10.88;50.93
2785;BME280;57944;48.722;9.316;2023-02-11T13:18:38;99827.59;;;11.03;51.24
2785;BME280;57944;48.722;9.316;2023-02-11T13:21:44;99831.28;;;10.82;52.70
2785;BME280;57944;48.722;9.316;2023-02-11T13:24:25;99831.22;;;11.18;52.21
2785;BME280;57944;48.722;9.316;2023-02-11T13:27:09;99828.53;;;11.28;52.27
2785;BME280;57944;48.722;9.316;2023-02-11T13:30:25;99826.16;;;11.26;53.90
2785;BME280;57944;48.722;9.316;2023-02-11T13:33:29;99827.81;;;11.35;52.37
2785;BME280;57944;48.722;9.316;2023-02-11T13:36:20;99828.25;;;11.31;52.54
2785;BME280;57944;48.722;9.316;2023-02-11T13:38:57;99824.25;;;11.02;52.94
2785;BME280;57944;48.722;9.316;2023-02-11T13:41:36;99825.44;;;10.90;53.16
2785;BME280;57944;48.722;9.316;2023-02-11T13:44:25;99823.84;;;10.71;55.33
2785;BME280;57944;48.722;9.316;2023-02-11T13:47:04;99819.97;;;10.67;55.12
2785;BME280;57944;48.722;9.316;2023-02-11T13:49:37;99816.25;;;10.61;56.29
2785;BME280;57944;48.722;9.316;2023-02-11T13:52:23;99820.56;;;9.97;58.36
2785;BME280;57944;48.722;9.316;2023-02-11T13:55:00;99818.84;;;9.60;61.31